Eads, CO (81036)

11:45 PM MST on February 13, 2016 (GMT -0700)
Kit Carson | | Change Station
CLOSE
Current Station
Personal Weather Station
Location: Kit Carson, CO
Elevation: 4301 ft
Nearby Weather Stations

Elev 4301 ft 38.77 °N, 102.79 °W | Updated 7 seconds ago

Partly Cloudy
Partly Cloudy
36.0 °F
Feels Like 28 °F
N
11.2
Wind Variable Wind from NNE
Gusts 17.0 mph

Today
High -- | Low -- °F
--% Chance of Precip.
Yesterday
High -- | Low -- °F
Precip. -- in
Pressure 30.03 in
Visibility 6.0 miles
Clouds Clear
Windchill 28 °F
Dew Point 31 °F
Humidity 80%
Rainfall 0.00 in
Snow Depth Not available.
6:44 AM 5:26 PM
Waxing Crescent, 38% visible
METAR KLAA 140553Z AUTO 29003KT 6SM BR CLR M03/M04 A2998 RMK AO2 SLP167 T10281044 10089 21044 53004 TSNO
Pressure 30.03 in
Visibility 6.0 miles
Clouds Clear
Windchill 28 °F
Dew Point 31 °F
Humidity 80%
Rainfall 0.00 in
Snow Depth Not available.
6:44 AM 5:26 PM
Waxing Crescent, 38% visible
METAR KLAA 140553Z AUTO 29003KT 6SM BR CLR M03/M04 A2998 RMK AO2 SLP167 T10281044 10089 21044 53004 TSNO

10-Day Weather Forecast

Almanac

Astronomy

Feb. 13, 2016 Rise Set
Actual Time
Civil Twilight
Nautical Twilight
Astronomical Twilight
Moon
Length of Visible Light
Length of Day
Tomorrow will be .
, % of the Moon is Illuminated

Today's Extremes

State Highs State Lows

Community

WunderPhotos

Upload Photos

1,892,757 photos uploaded!

WunderBlog® & News

Nearby

Air Quality

  Air Quality AQ Index Pollutant
Not available.

Snow Depth

Station Depth Elevation

Earthquake Activity

City Distance Mag. Time & Date
Minimum magnitude displayed is 2.5.

Coastal Water Temperatures

Place Temperature

Stations

Nearby Weather Stations

Station Location Temp. Windchill Dew Point Humidity Wind Precip. Elev Updated Type
                   

Watches & Warnings

There are currently no watches in effect.